Terminal Aerodrome Forecast
Issued by NWS

Home | Current Version | Previous Version | Text Only | Print | Product List | Glossary On
Versions: 1 2 3 4 5 6 7 8 9 10 11 12 13 14 15 16 17 18 19 20 21 22 23
797
FTUS44 KTSA 240521
TAFMLC
TAF
KMLC 240521Z 2406/2506 00000KT 4SM -RA BR FEW004 SCT012 OVC017
      TEMPO 2406/2410 2SM -TSRA BR OVC005CB
     FM241000 VRB03KT 5SM -RA BR BKN004
      TEMPO 2410/2414 1SM -DZ BR OVC003
     FM241500 19007KT 4SM -RA BR OVC006
      TEMPO 2415/2419 2SM -TSRA BR OVC015CB
     FM242000 24012G22KT P6SM BKN015
     FM250200 30009KT P6SM SKC=

USA.gov is the U.S. government's official web portal to all federal, state and local government web resources and services.